Newman Grove, Nebraska
Current Conditions -  °F | °C
As of 7:55 PM on Thursday 18 Dec 2014 (Local Time) from KBVN Reporting Station
Overcast Overcast  
Wind Chill: 23°   Ceiling: 1100
Heat Index: 29°   Visibility: 7mi
Dew Point: 25°   Wind: 5mph
Humidity: 86%   Direction: 190°S
Pressure: 30.16"   Gusts: NA
Location:  41.75°N, 97.78°W
Report Text: KBVN 190155Z AUTO 19004KT 7SM OVC011 M02/M04 A3016 RMK AO2 T10191039
Loading
Personal Weather Stations






























Interactive Weather Map New forecast layout! Learn more

10-Day Weather Forecast

Advertisements
Track Severe Weather on mobile